Time;durP1;ratioP1;P1;durP2;ratioP2;P2;SDS_P1;SDS_P2;PMS_P1;PMS_P2;Temp;Humidity;BMP_temperature;BMP_pressure;BME280_temperature;BME280_humidity;BME280_pressure;Samples;Min_cycle;Max_cycle;Signal;HPM_P1;HPM_P2
2022/10/17 00:01:16;;;;;;;10.47;8.90;;;13.80;99.90;;;;;;5029195;28;20196;-61
2022/10/17 00:03:44;;;;;;;12.67;9.40;;;13.80;99.90;;;;;;5033697;28;20221;-62
2022/10/17 00:06:14;;;;;;;14.03;10.47;;;13.70;99.90;;;;;;5028209;28;20604;-62
2022/10/17 00:08:44;;;;;;;18.77;10.53;;;13.70;99.90;;;;;;5026289;28;20219;-61
2022/10/17 00:11:15;;;;;;;13.80;10.60;;;13.80;99.90;;;;;;5029332;28;20225;-61
2022/10/17 00:13:44;;;;;;;14.93;10.90;;;14.00;99.90;;;;;;5026318;28;20185;-61
2022/10/17 00:16:12;;;;;;;14.17;10.50;;;14.10;99.90;;;;;;5030574;28;20186;-61
2022/10/17 00:18:42;;;;;;;14.17;10.53;;;14.20;99.90;;;;;;5035393;28;20197;-61
2022/10/17 00:21:16;;;;;;;17.27;10.60;;;14.30;99.90;;;;;;5029685;28;20241;-61
2022/10/17 00:23:44;;;;;;;14.87;10.20;;;14.30;99.90;;;;;;5027883;28;20624;-62
2022/10/17 00:26:13;;;;;;;15.20;10.33;;;14.40;99.90;;;;;;5027653;28;20202;-61
2022/10/17 00:28:41;;;;;;;13.87;10.27;;;14.40;99.90;;;;;;5031611;28;20692;-61
2022/10/17 00:31:09;;;;;;;12.70;10.63;;;14.40;99.90;;;;;;5032869;28;20832;-61
2022/10/17 00:33:39;;;;;;;14.40;10.50;;;14.40;99.90;;;;;;5036117;28;20209;-61
2022/10/17 00:36:12;;;;;;;12.50;10.30;;;14.40;99.90;;;;;;5045002;28;20200;-61
2022/10/17 00:38:42;;;;;;;14.60;10.67;;;14.50;99.90;;;;;;5034704;28;20201;-62
2022/10/17 00:41:12;;;;;;;21.80;11.17;;;14.50;99.90;;;;;;5032009;28;20186;-61
2022/10/17 00:43:52;;;;;;;13.73;10.03;;;14.60;99.90;;;;;;5032590;28;20213;-61
2022/10/17 00:46:22;;;;;;;14.07;10.23;;;14.60;99.90;;;;;;5027900;28;20208;-61
2022/10/17 00:48:52;;;;;;;15.40;10.80;;;14.70;99.90;;;;;;5029528;28;20202;-61
2022/10/17 00:51:31;;;;;;;16.63;10.60;;;14.70;99.90;;;;;;5030253;28;20189;-62
2022/10/17 00:54:00;;;;;;;12.27;9.80;;;14.70;99.90;;;;;;5033603;28;20186;-61
2022/10/17 00:56:29;;;;;;;13.93;9.80;;;14.70;99.90;;;;;;5034451;28;20193;-61
2022/10/17 00:58:58;;;;;;;17.13;10.00;;;14.80;99.90;;;;;;5038888;28;20611;-61
2022/10/17 01:01:29;;;;;;;13.23;9.87;;;14.80;99.90;;;;;;5032675;28;20221;-61
2022/10/17 01:03:59;;;;;;;12.17;9.53;;;14.80;99.90;;;;;;5024554;28;20221;-61
2022/10/17 01:06:28;;;;;;;11.77;9.50;;;14.80;99.90;;;;;;5032635;28;20193;-61
2022/10/17 01:08:57;;;;;;;13.37;9.47;;;14.90;99.90;;;;;;5028100;28;20274;-61
2022/10/17 01:11:35;;;;;;;11.23;9.03;;;14.90;99.90;;;;;;5029358;28;20287;-61
2022/10/17 01:14:11;;;;;;;13.77;9.57;;;14.90;99.90;;;;;;5039462;28;20208;-61
2022/10/17 01:16:47;;;;;;;12.97;9.33;;;14.90;99.90;;;;;;5038675;28;20204;-61
2022/10/17 01:19:57;;;;;;;12.63;9.17;;;14.90;99.90;;;;;;5036746;28;20197;-61
2022/10/17 01:22:32;;;;;;;13.57;9.33;;;15.00;99.90;;;;;;4971634;28;20261;-61
2022/10/17 01:25:23;;;;;;;11.33;9.73;;;15.00;99.90;;;;;;5031640;28;22641;-61
2022/10/17 01:28:16;;;;;;;13.70;9.17;;;15.00;99.90;;;;;;5029248;28;20213;-61
2022/10/17 01:31:06;;;;;;;12.30;9.00;;;15.00;99.90;;;;;;5032725;28;20192;-61
2022/10/17 01:33:53;;;;;;;14.30;8.77;;;15.00;99.90;;;;;;5025580;28;20542;-61
2022/10/17 01:36:38;;;;;;;10.80;8.73;;;15.10;99.90;;;;;;5039500;28;21219;-61
2022/10/17 01:39:14;;;;;;;12.77;8.37;;;15.10;99.90;;;;;;5031530;28;20204;-61
2022/10/17 01:41:48;;;;;;;11.00;8.73;;;15.10;99.90;;;;;;5037504;28;20201;-61
2022/10/17 01:44:23;;;;;;;15.57;8.53;;;15.10;99.90;;;;;;5038231;28;20210;-62
2022/10/17 01:46:59;;;;;;;11.47;8.20;;;15.10;99.90;;;;;;5033197;28;20197;-61
2022/10/17 01:49:31;;;;;;;13.97;8.47;;;15.10;99.90;;;;;;5028825;28;20204;-61
2022/10/17 01:52:04;;;;;;;13.13;8.90;;;15.20;99.90;;;;;;5034618;28;20193;-62
2022/10/17 01:54:38;;;;;;;9.07;7.77;;;15.10;99.90;;;;;;5034837;28;20182;-61
2022/10/17 01:57:14;;;;;;;8.77;7.87;;;15.10;99.90;;;;;;5032896;28;20232;-61
2022/10/17 01:59:46;;;;;;;14.40;8.63;;;15.20;99.90;;;;;;5016932;28;20251;-61
2022/10/17 02:02:19;;;;;;;9.00;8.10;;;15.20;99.90;;;;;;5024078;28;20217;-61
2022/10/17 02:04:48;;;;;;;12.13;8.73;;;15.20;99.90;;;;;;5029018;28;20217;-61
2022/10/17 02:07:17;;;;;;;11.17;8.53;;;15.20;99.90;;;;;;5034518;28;20197;-61
2022/10/17 02:09:45;;;;;;;9.43;8.43;;;15.30;99.90;;;;;;5044818;28;20225;-61
2022/10/17 02:12:42;;;;;;;11.40;8.90;;;15.30;99.90;;;;;;5044490;28;20638;-61
2022/10/17 02:15:32;;;;;;;15.70;9.10;;;15.30;99.90;;;;;;5026940;28;20285;-61
2022/10/17 02:18:09;;;;;;;13.90;8.73;;;15.40;99.90;;;;;;5042607;28;20200;-61
2022/10/17 02:20:45;;;;;;;11.87;8.40;;;15.50;99.90;;;;;;5027306;28;20189;-61
2022/10/17 02:23:23;;;;;;;9.07;8.13;;;15.60;99.90;;;;;;5031219;28;20522;-62
2022/10/17 02:26:00;;;;;;;12.90;8.73;;;15.70;99.90;;;;;;5032079;28;20217;-62
2022/10/17 02:28:37;;;;;;;18.33;8.03;;;15.70;99.90;;;;;;5033946;28;20198;-62
2022/10/17 02:31:13;;;;;;;11.33;8.03;;;15.80;99.90;;;;;;5030838;28;20535;-61
2022/10/17 02:33:47;;;;;;;11.10;7.90;;;15.90;99.90;;;;;;5027101;28;20201;-62
2022/10/17 02:36:20;;;;;;;9.63;7.97;;;15.90;99.90;;;;;;5042495;28;20201;-62
2022/10/17 02:38:50;;;;;;;12.63;8.03;;;15.90;99.90;;;;;;5043384;28;20563;-62
2022/10/17 02:41:21;;;;;;;8.90;7.53;;;16.00;99.90;;;;;;5037312;28;20221;-61
2022/10/17 02:43:51;;;;;;;13.43;8.63;;;16.00;99.90;;;;;;5030743;28;20202;-61
2022/10/17 02:46:22;;;;;;;8.67;7.43;;;16.00;99.90;;;;;;5044467;28;20659;-62
2022/10/17 02:48:54;;;;;;;10.77;7.17;;;16.00;99.90;;;;;;5033096;28;20209;-61
2022/10/17 02:51:32;;;;;;;8.73;7.77;;;16.00;99.90;;;;;;5030615;28;20202;-61
2022/10/17 02:54:09;;;;;;;13.33;8.10;;;16.00;99.90;;;;;;5031109;28;20214;-62
2022/10/17 02:56:42;;;;;;;11.50;7.30;;;16.00;99.90;;;;;;5031704;28;20644;-62
2022/10/17 02:59:14;;;;;;;11.80;7.80;;;16.00;99.90;;;;;;5031530;28;20198;-62
2022/10/17 03:01:43;;;;;;;10.47;7.33;;;16.10;99.90;;;;;;5032283;28;20194;-61
2022/10/17 03:04:14;;;;;;;9.90;7.70;;;16.10;99.90;;;;;;5029926;28;20215;-62
2022/10/17 03:06:43;;;;;;;9.60;7.60;;;16.20;99.90;;;;;;5025894;28;20206;-61
2022/10/17 03:09:11;;;;;;;13.07;7.67;;;16.20;99.90;;;;;;5033614;28;20209;-61
2022/10/17 03:11:39;;;;;;;9.40;7.50;;;16.40;99.90;;;;;;5046005;28;20585;-61
2022/10/17 03:14:08;;;;;;;8.20;7.23;;;16.40;99.90;;;;;;5027783;28;20202;-61
2022/10/17 03:16:37;;;;;;;7.77;7.00;;;16.50;99.90;;;;;;5027154;28;20215;-61
2022/10/17 03:19:06;;;;;;;9.33;6.90;;;16.60;99.90;;;;;;5029713;28;20198;-61
2022/10/17 03:21:36;;;;;;;9.60;7.10;;;16.60;99.90;;;;;;5038993;28;20588;-61
2022/10/17 03:24:05;;;;;;;9.40;6.83;;;16.60;99.90;;;;;;5029089;28;20208;-61
2022/10/17 03:26:34;;;;;;;7.67;6.97;;;16.70;99.90;;;;;;5038795;28;20206;-61
2022/10/17 03:29:02;;;;;;;11.23;6.87;;;16.70;99.90;;;;;;5033380;28;20719;-61
2022/10/17 03:31:30;;;;;;;8.23;6.37;;;16.70;99.90;;;;;;5033540;28;20198;-61
2022/10/17 03:33:59;;;;;;;7.93;6.57;;;16.80;99.90;;;;;;5029932;28;20200;-61
2022/10/17 03:36:30;;;;;;;8.47;6.80;;;16.80;99.90;;;;;;5035165;28;20189;-61
2022/10/17 03:39:00;;;;;;;7.83;6.30;;;16.80;99.90;;;;;;5027419;28;20208;-61
2022/10/17 03:41:29;;;;;;;7.00;6.33;;;16.80;99.90;;;;;;5033925;28;20687;-61
2022/10/17 03:43:58;;;;;;;6.73;6.10;;;16.80;99.90;;;;;;5042135;28;20208;-61
2022/10/17 03:46:29;;;;;;;6.30;5.90;;;16.90;99.90;;;;;;5024285;28;20205;-62
2022/10/17 03:48:57;;;;;;;8.30;6.20;;;16.90;99.90;;;;;;5025606;28;20296;-62
2022/10/17 03:51:25;;;;;;;6.50;6.00;;;17.00;99.90;;;;;;5028339;28;20194;-61
2022/10/17 03:53:53;;;;;;;9.33;6.13;;;17.00;99.90;;;;;;5027213;28;20185;-61
2022/10/17 03:56:24;;;;;;;8.57;6.43;;;17.10;99.90;;;;;;5028345;28;20190;-62
2022/10/17 03:58:53;;;;;;;8.00;6.50;;;17.00;99.90;;;;;;5029033;28;20207;-62
2022/10/17 04:01:22;;;;;;;6.63;5.97;;;17.00;99.90;;;;;;5026981;28;20198;-61
2022/10/17 04:03:51;;;;;;;8.27;6.23;;;17.10;99.90;;;;;;5028365;28;20687;-61
2022/10/17 04:06:21;;;;;;;9.83;6.60;;;17.20;99.90;;;;;;5032984;28;20208;-61
2022/10/17 04:08:49;;;;;;;7.03;6.40;;;17.10;99.90;;;;;;5034267;28;21255;-61
2022/10/17 04:11:19;;;;;;;7.23;6.53;;;17.10;99.90;;;;;;5026037;28;20232;-61
2022/10/17 04:13:53;;;;;;;9.93;6.00;;;17.10;99.90;;;;;;5023391;28;20798;-61
2022/10/17 04:16:24;;;;;;;7.03;6.20;;;17.10;99.90;;;;;;5036329;28;20676;-61
2022/10/17 04:18:54;;;;;;;7.77;5.93;;;17.20;99.90;;;;;;5027114;28;20203;-61
2022/10/17 04:21:23;;;;;;;7.40;6.47;;;17.20;99.90;;;;;;5026417;28;20190;-61
2022/10/17 04:23:54;;;;;;;9.17;6.07;;;17.20;99.90;;;;;;5025749;28;20201;-61
2022/10/17 04:26:23;;;;;;;6.90;6.07;;;17.10;99.90;;;;;;5026713;28;21442;-61
2022/10/17 04:28:53;;;;;;;6.60;5.93;;;17.10;99.90;;;;;;5027166;28;20233;-62
2022/10/17 04:31:21;;;;;;;6.73;6.00;;;17.10;99.90;;;;;;5022810;28;20194;-61
2022/10/17 04:33:50;;;;;;;7.27;6.00;;;17.10;99.90;;;;;;5024815;28;20200;-61
2022/10/17 04:36:21;;;;;;;6.87;5.83;;;17.00;99.90;;;;;;5027370;28;20204;-61
2022/10/17 04:38:50;;;;;;;6.97;6.07;;;17.00;99.90;;;;;;5030834;28;20641;-61
2022/10/17 04:41:18;;;;;;;6.63;6.10;;;17.00;99.90;;;;;;5024566;28;20196;-61
2022/10/17 04:43:47;;;;;;;10.47;6.43;;;16.90;99.90;;;;;;5037010;28;20204;-61
2022/10/17 04:46:20;;;;;;;6.80;6.00;;;16.90;99.90;;;;;;5034255;28;20228;-62
2022/10/17 04:48:48;;;;;;;8.07;6.23;;;17.00;99.90;;;;;;5031297;28;20348;-61
2022/10/17 04:51:18;;;;;;;7.63;6.33;;;17.00;99.90;;;;;;5030443;28;20220;-62
2022/10/17 04:53:51;;;;;;;6.90;6.17;;;17.00;99.90;;;;;;5043076;28;20814;-61
2022/10/17 04:56:21;;;;;;;7.67;6.23;;;17.00;99.90;;;;;;5028107;28;20196;-62
2022/10/17 04:58:50;;;;;;;6.93;6.27;;;17.10;99.90;;;;;;5030705;28;20549;-61
2022/10/17 05:01:22;;;;;;;7.03;6.27;;;17.20;99.90;;;;;;5034950;28;20200;-61
2022/10/17 05:03:50;;;;;;;10.07;6.13;;;17.20;99.90;;;;;;5019338;28;20693;-61
2022/10/17 05:06:20;;;;;;;6.77;6.10;;;17.20;99.90;;;;;;5030667;28;20220;-61
2022/10/17 05:08:48;;;;;;;7.40;6.17;;;17.20;99.90;;;;;;5029768;28;20194;-61
2022/10/17 05:11:18;;;;;;;9.17;6.00;;;17.30;99.90;;;;;;5036350;28;20245;-61
2022/10/17 05:13:51;;;;;;;7.90;6.00;;;17.20;99.90;;;;;;5031630;28;20576;-61
2022/10/17 05:16:21;;;;;;;13.97;6.27;;;17.20;99.90;;;;;;5025541;28;20190;-61
2022/10/17 05:18:50;;;;;;;7.37;6.00;;;17.20;99.90;;;;;;5031970;28;20216;-61
2022/10/17 05:21:21;;;;;;;7.73;6.70;;;17.20;99.90;;;;;;5041930;28;20193;-61
2022/10/17 05:23:49;;;;;;;9.27;6.03;;;17.20;99.90;;;;;;5039749;28;20956;-61
2022/10/17 05:26:18;;;;;;;6.50;5.87;;;17.20;99.90;;;;;;5030117;28;20208;-61
2022/10/17 05:28:46;;;;;;;7.70;6.30;;;17.30;99.90;;;;;;5040327;28;20227;-61
2022/10/17 05:31:15;;;;;;;7.53;5.80;;;17.30;99.90;;;;;;5028471;28;20200;-61
2022/10/17 05:33:44;;;;;;;6.53;5.93;;;17.30;99.90;;;;;;5030073;28;20209;-61
2022/10/17 05:36:13;;;;;;;6.27;5.67;;;17.30;99.90;;;;;;5026996;28;20840;-61
2022/10/17 05:38:42;;;;;;;9.13;6.00;;;17.30;99.90;;;;;;5052251;28;20561;-61
2022/10/17 05:41:10;;;;;;;7.37;6.30;;;17.40;99.90;;;;;;5035161;28;20190;-61
2022/10/17 05:43:39;;;;;;;6.77;5.47;;;17.40;99.90;;;;;;5034850;28;20213;-61
2022/10/17 05:46:07;;;;;;;8.37;5.43;;;17.40;99.90;;;;;;5027181;28;20272;-61
2022/10/17 05:48:36;;;;;;;8.13;5.80;;;17.40;99.90;;;;;;5029622;28;20224;-62
2022/10/17 05:51:07;;;;;;;6.20;5.70;;;17.40;99.90;;;;;;5028808;28;20200;-62
2022/10/17 05:53:38;;;;;;;6.43;5.47;;;17.40;99.90;;;;;;5027762;28;20212;-62
2022/10/17 05:56:09;;;;;;;9.13;5.60;;;17.50;99.90;;;;;;5034529;28;20780;-62
2022/10/17 05:58:41;;;;;;;8.63;5.80;;;17.40;99.90;;;;;;5026040;28;20204;-61
2022/10/17 06:01:19;;;;;;;6.47;5.90;;;17.40;99.90;;;;;;5043344;28;20557;-61
2022/10/17 06:03:48;;;;;;;8.90;5.60;;;17.40;99.90;;;;;;5024173;28;20629;-61
2022/10/17 06:06:18;;;;;;;8.73;5.60;;;17.40;99.90;;;;;;5026971;28;20209;-61
2022/10/17 06:08:47;;;;;;;11.03;5.70;;;17.30;99.90;;;;;;5033305;28;20202;-61
2022/10/17 06:11:15;;;;;;;6.87;5.70;;;17.30;99.90;;;;;;5035366;28;20233;-61
2022/10/17 06:13:43;;;;;;;6.30;5.67;;;17.30;99.90;;;;;;5050593;28;20197;-62
2022/10/17 06:16:11;;;;;;;7.80;6.27;;;17.20;99.90;;;;;;5040779;28;20203;-61
2022/10/17 06:18:40;;;;;;;7.67;6.00;;;17.20;99.90;;;;;;5030529;28;20208;-61
2022/10/17 06:21:11;;;;;;;6.27;5.67;;;17.20;99.90;;;;;;5032068;28;20189;-61
2022/10/17 06:23:40;;;;;;;7.73;5.90;;;17.20;99.90;;;;;;5049292;28;20197;-61
2022/10/17 06:26:09;;;;;;;12.53;6.00;;;17.10;99.90;;;;;;5044044;28;20204;-62
2022/10/17 06:28:37;;;;;;;9.00;6.37;;;17.10;99.90;;;;;;5053041;28;20683;-61
2022/10/17 06:31:07;;;;;;;9.00;6.37;;;17.10;99.90;;;;;;5040920;28;20196;-61
2022/10/17 06:33:35;;;;;;;10.90;6.73;;;17.10;99.90;;;;;;5031650;28;20190;-61
2022/10/17 06:36:05;;;;;;;13.67;7.60;;;17.10;99.90;;;;;;5030655;28;20193;-61
2022/10/17 06:38:34;;;;;;;10.47;7.47;;;17.00;99.90;;;;;;5029286;28;20205;-61
2022/10/17 06:41:10;;;;;;;14.87;7.87;;;17.00;99.90;;;;;;5034805;28;20199;-61
2022/10/17 06:43:38;;;;;;;7.90;6.87;;;16.90;99.90;;;;;;5043721;28;20210;-62
2022/10/17 06:46:07;;;;;;;9.90;7.37;;;16.80;99.90;;;;;;5049008;28;20202;-62
2022/10/17 06:48:35;;;;;;;7.50;6.10;;;16.80;99.90;;;;;;5032247;28;20221;-62
2022/10/17 06:51:08;;;;;;;8.37;7.17;;;16.80;99.90;;;;;;5048510;28;20193;-61
2022/10/17 06:53:38;;;;;;;15.07;7.27;;;16.80;99.90;;;;;;5059519;28;20198;-62
2022/10/17 06:56:10;;;;;;;8.53;6.70;;;16.70;99.90;;;;;;5046276;28;20207;-62
2022/10/17 06:58:41;;;;;;;10.63;6.93;;;16.60;99.90;;;;;;5046353;28;20242;-62
2022/10/17 07:01:11;;;;;;;8.70;7.80;;;16.60;99.90;;;;;;5045363;28;20232;-62
2022/10/17 07:03:42;;;;;;;12.37;7.70;;;16.70;99.90;;;;;;5032269;28;20216;-62
2022/10/17 07:06:10;;;;;;;9.50;7.87;;;16.60;99.90;;;;;;5047727;28;20795;-62
2022/10/17 07:08:43;;;;;;;10.50;8.33;;;16.60;99.90;;;;;;5035378;28;20240;-62
2022/10/17 07:11:14;;;;;;;10.87;7.77;;;16.60;99.90;;;;;;5030805;28;20236;-62
2022/10/17 07:13:43;;;;;;;8.53;7.13;;;16.60;99.90;;;;;;5045566;28;20190;-62
2022/10/17 07:16:12;;;;;;;7.77;7.00;;;16.50;99.90;;;;;;5045600;28;20208;-62
2022/10/17 07:18:41;;;;;;;11.43;7.37;;;16.40;99.90;;;;;;5042610;28;20205;-62
2022/10/17 07:21:10;;;;;;;14.47;7.00;;;16.40;99.90;;;;;;5045332;28;20207;-62
2022/10/17 07:23:38;;;;;;;15.37;8.17;;;16.40;99.90;;;;;;5030249;28;20199;-62
2022/10/17 07:26:09;;;;;;;11.83;8.20;;;16.30;99.90;;;;;;5035809;28;20273;-61
2022/10/17 07:28:42;;;;;;;9.77;8.13;;;16.30;99.90;;;;;;5045652;28;20224;-62
2022/10/17 07:31:13;;;;;;;11.80;7.90;;;16.30;99.90;;;;;;5039532;28;20205;-63
2022/10/17 07:38:24;;;;;;;13.37;8.30;;;16.40;99.90;;;;;;5033164;28;20194;-62
2022/10/17 07:40:56;;;;;;;10.00;7.97;;;16.30;99.90;;;;;;5033566;28;20197;-62
2022/10/17 07:43:24;;;;;;;13.73;8.47;;;16.30;99.90;;;;;;5033837;28;20287;-63
2022/10/17 07:45:55;;;;;;;11.30;8.10;;;16.30;99.90;;;;;;5033508;28;20192;-62
2022/10/17 07:48:24;;;;;;;10.67;7.57;;;16.30;99.90;;;;;;5033677;28;20214;-63
2022/10/17 07:50:53;;;;;;;9.83;7.13;;;16.20;99.90;;;;;;5033421;28;20239;-63
2022/10/17 07:53:21;;;;;;;9.80;6.73;;;16.20;99.90;;;;;;5033402;28;20199;-63
2022/10/17 07:55:50;;;;;;;9.27;6.60;;;16.10;99.90;;;;;;5033371;28;20192;-64
2022/10/17 07:58:18;;;;;;;9.87;7.00;;;16.20;99.90;;;;;;5033619;28;20707;-63
2022/10/17 08:00:47;;;;;;;10.23;7.53;;;16.20;99.90;;;;;;5033318;28;20598;-63
2022/10/17 08:03:17;;;;;;;10.03;6.97;;;16.10;99.90;;;;;;5032134;28;20216;-63
2022/10/17 08:05:45;;;;;;;13.73;7.40;;;16.10;99.90;;;;;;5032096;28;20192;-64
2022/10/17 08:08:14;;;;;;;11.80;7.90;;;16.10;99.90;;;;;;5033117;28;20575;-62
2022/10/17 08:10:42;;;;;;;12.20;7.60;;;16.10;99.90;;;;;;5033174;28;20717;-63
2022/10/17 08:13:10;;;;;;;12.53;7.53;;;16.10;99.90;;;;;;5033311;28;20191;-63
2022/10/17 08:15:38;;;;;;;12.23;7.30;;;16.10;99.90;;;;;;5031936;28;20198;-63
2022/10/17 08:18:07;;;;;;;10.53;7.20;;;16.10;99.90;;;;;;5033381;28;20202;-63
2022/10/17 08:20:37;;;;;;;14.13;7.63;;;16.10;99.90;;;;;;5033105;28;20206;-63
2022/10/17 08:23:07;;;;;;;7.67;6.90;;;16.10;99.90;;;;;;5033024;28;20191;-63
2022/10/17 08:25:38;;;;;;;13.53;9.53;;;16.20;99.90;;;;;;5033417;28;20179;-63
2022/10/17 08:28:07;;;;;;;13.23;8.93;;;16.20;99.90;;;;;;5033004;28;20261;-63
2022/10/17 08:30:40;;;;;;;11.10;9.73;;;16.20;99.90;;;;;;5032965;28;20220;-63
2022/10/17 08:33:08;;;;;;;14.63;10.13;;;16.30;99.90;;;;;;5032875;28;20207;-63
2022/10/17 08:35:37;;;;;;;14.00;8.13;;;16.20;99.90;;;;;;5033183;28;20548;-63
2022/10/17 08:38:06;;;;;;;14.30;9.50;;;16.20;99.90;;;;;;5033823;28;20184;-63
2022/10/17 08:40:41;;;;;;;16.00;7.80;;;16.20;99.90;;;;;;5033459;28;20195;-65
2022/10/17 08:43:31;;;;;;;9.77;8.33;;;16.20;99.90;;;;;;5033092;28;20242;-63
2022/10/17 08:46:06;;;;;;;13.43;8.17;;;16.20;99.90;;;;;;5033845;28;20192;-63
2022/10/17 08:48:39;;;;;;;13.83;8.00;;;16.30;99.90;;;;;;5031948;28;20548;-64
2022/10/17 08:51:19;;;;;;;15.00;8.10;;;16.30;99.90;;;;;;5034834;28;20271;-63
2022/10/17 08:53:52;;;;;;;15.97;8.23;;;16.30;99.90;;;;;;5037226;28;20187;-63
2022/10/17 08:56:23;;;;;;;11.70;7.90;;;16.40;99.90;;;;;;5036947;28;20197;-63
2022/10/17 08:59:13;;;;;;;11.10;7.93;;;16.40;99.90;;;;;;5036761;28;20194;-63
2022/10/17 09:01:48;;;;;;;14.90;9.20;;;16.40;99.90;;;;;;5036538;28;20519;-63
2022/10/17 09:04:38;;;;;;;17.37;8.47;;;16.40;99.90;;;;;;5037048;28;20219;-63
2022/10/17 09:07:17;;;;;;;10.80;8.17;;;16.40;99.90;;;;;;5037640;28;20196;-63
2022/10/17 09:09:55;;;;;;;13.10;8.47;;;16.40;99.90;;;;;;5036151;28;20653;-64
2022/10/17 09:12:31;;;;;;;13.30;9.37;;;16.50;99.90;;;;;;5036302;28;20195;-64
2022/10/17 09:15:31;;;;;;;11.77;8.60;;;16.50;99.90;;;;;;5036284;28;20195;-63
2022/10/17 09:18:03;;;;;;;16.60;9.33;;;16.50;99.90;;;;;;5034888;28;20209;-63
2022/10/17 09:20:36;;;;;;;13.97;8.93;;;16.50;99.90;;;;;;5036694;28;20533;-64
2022/10/17 09:23:13;;;;;;;12.40;8.43;;;16.50;99.90;;;;;;5036120;28;20220;-63
2022/10/17 09:25:44;;;;;;;12.93;8.70;;;16.50;99.90;;;;;;5036085;28;20190;-63
2022/10/17 09:28:16;;;;;;;14.93;9.20;;;16.60;99.90;;;;;;5036446;28;20217;-63
2022/10/17 09:30:47;;;;;;;14.97;8.83;;;16.60;99.90;;;;;;5035923;28;20190;-63
2022/10/17 09:33:17;;;;;;;10.90;8.40;;;16.60;99.90;;;;;;5036499;28;20515;-63
2022/10/17 09:36:11;;;;;;;12.47;8.10;;;16.60;99.90;;;;;;5034906;28;20193;-63
2022/10/17 09:38:43;;;;;;;13.47;8.93;;;16.60;99.90;;;;;;5036240;28;20184;-63
2022/10/17 09:41:19;;;;;;;14.53;8.60;;;16.60;99.90;;;;;;5034851;28;20515;-64
2022/10/17 09:44:19;;;;;;;12.77;8.67;;;16.70;99.90;;;;;;5035743;28;20194;-64
2022/10/17 09:47:06;;;;;;;14.43;8.73;;;16.70;99.90;;;;;;5035783;28;20189;-63
2022/10/17 09:49:36;;;;;;;15.07;9.37;;;16.70;99.90;;;;;;5035546;28;20212;-64
2022/10/17 09:52:09;;;;;;;18.43;9.70;;;16.70;99.90;;;;;;5035614;28;20194;-63
2022/10/17 09:54:44;;;;;;;15.83;10.03;;;16.70;99.90;;;;;;5034969;28;20220;-64
2022/10/17 09:57:14;;;;;;;19.57;9.63;;;16.70;99.90;;;;;;5034372;28;20193;-64
2022/10/17 09:59:47;;;;;;;11.20;9.13;;;16.60;99.90;;;;;;5035438;28;20212;-64
2022/10/17 10:02:19;;;;;;;15.27;9.97;;;16.60;99.90;;;;;;5035105;28;20217;-64
2022/10/17 10:05:03;;;;;;;15.97;10.30;;;16.70;99.90;;;;;;5035257;28;20193;-64
2022/10/17 10:07:36;;;;;;;14.37;10.00;;;16.70;99.90;;;;;;5034178;28;20209;-64
2022/10/17 10:10:22;;;;;;;22.53;10.57;;;16.70;99.90;;;;;;5035289;28;20252;-65
2022/10/17 10:13:04;;;;;;;15.50;11.03;;;16.70;99.90;;;;;;5035452;28;20205;-64
2022/10/17 10:15:37;;;;;;;16.30;10.00;;;16.70;99.90;;;;;;5034001;28;20193;-64
2022/10/17 10:18:29;;;;;;;14.43;9.93;;;16.70;99.90;;;;;;5035173;28;20188;-63
2022/10/17 10:21:07;;;;;;;15.83;10.17;;;16.70;99.90;;;;;;5035054;28;20228;-64
2022/10/17 10:23:39;;;;;;;15.77;10.43;;;16.70;99.90;;;;;;5035023;28;20230;-64
2022/10/17 10:26:22;;;;;;;19.73;10.60;;;16.70;99.90;;;;;;5034960;28;20276;-64
2022/10/17 10:28:59;;;;;;;17.40;11.27;;;16.70;99.90;;;;;;5034825;28;20209;-64
2022/10/17 10:31:34;;;;;;;16.43;10.27;;;16.80;99.90;;;;;;5035162;28;20201;-63
2022/10/17 10:34:14;;;;;;;15.57;10.83;;;16.80;99.90;;;;;;5034567;28;20200;-64
2022/10/17 10:36:56;;;;;;;15.73;10.90;;;16.80;99.90;;;;;;5035042;28;20202;-64
2022/10/17 10:39:30;;;;;;;12.20;9.33;;;16.90;99.90;;;;;;5035487;28;20193;-64
2022/10/17 10:42:02;;;;;;;16.07;9.60;;;17.10;99.90;;;;;;5035155;28;20232;-64
2022/10/17 10:44:33;;;;;;;12.20;8.70;;;17.20;99.90;;;;;;5034615;28;20558;-64
2022/10/17 10:47:16;;;;;;;12.90;8.33;;;17.30;99.90;;;;;;5033327;28;20193;-64
2022/10/17 10:49:45;;;;;;;7.93;7.23;;;17.40;99.90;;;;;;5034715;28;20213;-64
2022/10/17 10:52:32;;;;;;;9.87;6.77;;;17.40;99.90;;;;;;5034395;28;20186;-64
2022/10/17 10:55:14;;;;;;;7.40;5.77;;;17.60;99.90;;;;;;5034681;28;20197;-64
2022/10/17 10:57:44;;;;;;;5.93;5.50;;;17.60;99.90;;;;;;5034815;28;20752;-65
2022/10/17 11:00:17;;;;;;;6.90;6.30;;;17.60;99.90;;;;;;5033093;28;20194;-65
2022/10/17 11:02:53;;;;;;;7.37;5.90;;;17.70;99.90;;;;;;5033781;28;20216;-64
2022/10/17 11:05:33;;;;;;;10.33;6.47;;;17.60;99.90;;;;;;5034275;28;20197;-64
2022/10/17 11:08:10;;;;;;;9.00;5.90;;;17.60;99.90;;;;;;5034522;28;20201;-64
2022/10/17 11:10:43;;;;;;;9.53;6.50;;;17.50;99.90;;;;;;5034301;28;20240;-64
2022/10/17 11:13:17;;;;;;;10.83;6.90;;;17.50;99.90;;;;;;5033237;28;20198;-64
2022/10/17 11:15:51;;;;;;;6.67;5.97;;;17.50;99.90;;;;;;5034008;28;20196;-65
2022/10/17 11:18:25;;;;;;;6.80;6.10;;;17.40;99.90;;;;;;5034290;28;20189;-64
2022/10/17 11:20:57;;;;;;;7.30;6.23;;;17.40;99.90;;;;;;5017112;28;20716;-65
2022/10/17 11:23:34;;;;;;;7.70;5.87;;;17.50;99.90;;;;;;5033893;28;20201;-64
2022/10/17 11:26:07;;;;;;;8.30;6.40;;;17.50;99.90;;;;;;5033826;28;20190;-64
2022/10/17 11:28:37;;;;;;;9.70;6.20;;;17.50;99.90;;;;;;5033743;28;20243;-65
2022/10/17 11:31:10;;;;;;;6.63;6.10;;;17.60;99.90;;;;;;5033976;28;20195;-64
2022/10/17 11:33:45;;;;;;;8.37;6.43;;;17.60;99.90;;;;;;5033936;28;20200;-64
2022/10/17 11:36:16;;;;;;;6.90;6.30;;;17.60;99.90;;;;;;5032997;28;20185;-64
2022/10/17 11:38:49;;;;;;;11.10;7.43;;;17.60;99.90;;;;;;5033912;28;20181;-64
2022/10/17 11:41:22;;;;;;;7.67;6.90;;;17.60;99.90;;;;;;5033899;28;20212;-64
2022/10/17 11:43:56;;;;;;;9.33;7.77;;;17.60;99.90;;;;;;5033860;28;20190;-64
2022/10/17 11:46:28;;;;;;;10.00;7.67;;;17.60;99.90;;;;;;5034093;28;20236;-64
2022/10/17 11:49:06;;;;;;;9.33;8.30;;;17.60;99.90;;;;;;5034132;28;20196;-65
2022/10/17 11:51:49;;;;;;;12.37;8.17;;;17.60;99.90;;;;;;5033566;28;20193;-65
2022/10/17 11:54:37;;;;;;;11.03;8.30;;;17.60;99.90;;;;;;5032904;28;20227;-64
2022/10/17 11:57:28;;;;;;;13.10;8.47;;;17.70;99.90;;;;;;5033346;28;20194;-64
2022/10/17 12:00:11;;;;;;;9.50;7.97;;;17.70;99.90;;;;;;5033254;28;20197;-64
2022/10/17 12:02:46;;;;;;;11.63;8.20;;;17.70;99.90;;;;;;5033027;28;20217;-64
2022/10/17 12:05:24;;;;;;;14.20;7.53;;;17.70;99.90;;;;;;5031809;28;20177;-64
2022/10/17 12:07:59;;;;;;;11.83;7.90;;;17.70;99.90;;;;;;5033202;28;20201;-65
2022/10/17 12:10:39;;;;;;;10.80;7.77;;;17.70;99.90;;;;;;5033015;28;20240;-64
2022/10/17 12:13:48;;;;;;;8.40;7.57;;;17.70;99.90;;;;;;5033927;28;20538;-65
2022/10/17 12:16:44;;;;;;;15.63;8.13;;;17.60;99.90;;;;;;5015715;28;20204;-64
2022/10/17 12:19:27;;;;;;;12.63;7.53;;;17.60;99.90;;;;;;5033373;28;20195;-64
2022/10/17 12:21:58;;;;;;;11.23;7.80;;;17.60;99.90;;;;;;5033056;28;20662;-64
2022/10/17 12:24:43;;;;;;;9.07;6.97;;;17.60;99.90;;;;;;5033820;28;20597;-65
2022/10/17 12:27:37;;;;;;;9.27;7.07;;;17.70;99.90;;;;;;5036307;28;20551;-64
2022/10/17 12:30:15;;;;;;;11.33;6.97;;;17.60;99.90;;;;;;5033902;28;20251;-65
2022/10/17 12:33:01;;;;;;;10.73;7.30;;;17.70;99.90;;;;;;5037102;28;20178;-64
2022/10/17 12:35:36;;;;;;;9.27;6.60;;;17.70;99.90;;;;;;5035736;28;20254;-64
2022/10/17 12:38:28;;;;;;;9.67;6.17;;;17.70;99.90;;;;;;5037056;28;20185;-64
2022/10/17 12:41:05;;;;;;;9.80;5.60;;;17.60;99.90;;;;;;5027400;28;20228;-64
2022/10/17 12:43:51;;;;;;;12.57;5.83;;;17.70;99.90;;;;;;5036917;28;20188;-64
2022/10/17 12:46:48;;;;;;;8.23;5.70;;;17.70;99.90;;;;;;5037230;28;20620;-64
2022/10/17 12:52:51;;;;;;;6.77;5.23;;;17.80;99.90;;;;;;5127777;27;20609;-65
2022/10/17 12:55:25;;;;;;;7.13;5.13;;;17.80;99.90;;;;;;5109917;28;20197;-65
2022/10/17 12:57:59;;;;;;;8.90;5.10;;;17.70;99.90;;;;;;5111505;28;20179;-65
2022/10/17 13:00:33;;;;;;;5.43;4.40;;;17.70;99.90;;;;;;5111165;28;20190;-65
2022/10/17 13:03:12;;;;;;;5.33;4.83;;;17.70;99.90;;;;;;5110994;28;20197;-65
2022/10/17 13:05:50;;;;;;;5.17;4.77;;;17.70;99.90;;;;;;5111335;28;20198;-66
2022/10/17 13:08:23;;;;;;;6.03;5.20;;;17.80;99.90;;;;;;5111237;28;20189;-65
2022/10/17 13:10:53;;;;;;;12.40;5.23;;;17.80;99.90;;;;;;5111593;28;20206;-65
2022/10/17 13:13:27;;;;;;;6.03;4.70;;;17.90;99.90;;;;;;5110014;28;20657;-65
2022/10/17 13:15:55;;;;;;;7.03;5.07;;;18.00;99.90;;;;;;5110799;28;20195;-65
2022/10/17 13:18:26;;;;;;;5.00;4.60;;;18.10;99.90;;;;;;5110797;28;20197;-65
2022/10/17 13:21:00;;;;;;;4.33;4.03;;;18.10;99.90;;;;;;5110801;28;20178;-65